createdAt,value
2018-09-17T00:02:23.726Z,13.20
2018-09-17T00:05:23.731Z,13.06
2018-09-17T00:08:23.664Z,12.85
2018-09-17T00:11:23.654Z,12.57
2018-09-17T00:14:23.617Z,12.38
2018-09-17T00:17:23.590Z,12.33
2018-09-17T00:20:23.499Z,12.21
2018-09-17T00:23:23.522Z,12.06
2018-09-17T00:26:23.452Z,11.83
2018-09-17T00:29:24.240Z,11.86
2018-09-17T00:32:23.404Z,12.27
2018-09-17T00:35:23.346Z,12.66
2018-09-17T00:38:23.332Z,12.89
2018-09-17T00:41:23.301Z,13.02
2018-09-17T00:44:24.247Z,13.07
2018-09-17T00:47:23.213Z,13.22
2018-09-17T00:50:23.183Z,13.12
2018-09-17T00:53:23.161Z,13.27
2018-09-17T00:56:23.138Z,13.54
2018-09-17T00:59:23.093Z,13.55
2018-09-17T01:02:23.042Z,13.63
2018-09-17T01:05:23.003Z,13.79
2018-09-17T01:08:23.006Z,13.76
2018-09-17T01:11:22.967Z,13.69
2018-09-17T01:14:22.913Z,13.59
2018-09-17T01:17:22.878Z,13.61
2018-09-17T01:20:22.822Z,13.55
2018-09-17T01:23:22.827Z,13.63
2018-09-17T01:26:22.771Z,13.61
2018-09-17T01:29:22.742Z,13.63
2018-09-17T01:32:22.694Z,13.62
2018-09-17T01:35:22.685Z,13.62
2018-09-17T01:38:22.620Z,13.63
2018-09-17T01:41:22.617Z,13.52
2018-09-17T01:44:22.561Z,13.18
2018-09-17T01:47:24.220Z,12.30
2018-09-17T01:50:22.488Z,11.82
2018-09-17T01:53:22.490Z,11.62
2018-09-17T01:56:22.436Z,11.54
2018-09-17T01:59:22.418Z,11.52
2018-09-17T02:02:22.354Z,11.61
2018-09-17T02:05:22.352Z,11.83
2018-09-17T02:08:23.220Z,11.94
2018-09-17T02:11:22.265Z,12.04
2018-09-17T02:14:22.214Z,12.26
2018-09-17T02:17:22.207Z,12.19
2018-09-17T02:20:22.185Z,12.15
2018-09-17T02:23:22.129Z,12.27
2018-09-17T02:26:22.087Z,12.34
2018-09-17T02:29:22.095Z,12.57
2018-09-17T02:32:22.024Z,12.67
2018-09-17T02:35:22.012Z,12.77
2018-09-17T02:38:21.967Z,13.03
2018-09-17T02:41:21.908Z,12.77
2018-09-17T02:44:21.880Z,12.34
2018-09-17T02:47:21.833Z,12.21
2018-09-17T02:50:21.856Z,12.19
2018-09-17T02:53:21.846Z,11.97
2018-09-17T02:56:21.754Z,11.77
2018-09-17T02:59:23.241Z,11.77
2018-09-17T03:02:21.679Z,11.36
2018-09-17T03:05:21.649Z,11.16
2018-09-17T03:08:21.598Z,11.06
2018-09-17T03:11:23.225Z,10.91
2018-09-17T03:14:21.530Z,11.09
2018-09-17T03:17:21.715Z,11.20
2018-09-17T03:20:21.470Z,11.11
2018-09-17T03:23:21.449Z,10.78
2018-09-17T03:26:21.437Z,10.65
2018-09-17T03:29:23.227Z,10.40
2018-09-17T03:32:21.335Z,10.37
2018-09-17T03:35:21.363Z,10.32
2018-09-17T03:38:21.250Z,10.42
2018-09-17T03:41:21.240Z,10.28
2018-09-17T03:44:21.192Z,10.24
2018-09-17T03:47:21.155Z,10.04
2018-09-17T03:50:21.124Z,10.24
2018-09-17T03:53:21.118Z,10.30
2018-09-17T03:56:21.047Z,10.22
2018-09-17T03:59:21.035Z,10.06
2018-09-17T04:02:22.711Z,10.17
2018-09-17T04:05:20.959Z,10.21
2018-09-17T04:08:20.939Z,10.22
2018-09-17T04:11:20.877Z,10.10
2018-09-17T04:14:20.860Z,9.96
2018-09-17T04:17:20.835Z,9.88
2018-09-17T04:20:20.759Z,9.93
2018-09-17T04:23:20.765Z,10.04
2018-09-17T04:26:20.701Z,10.26
2018-09-17T04:29:20.710Z,10.26
2018-09-17T04:32:20.646Z,10.22
2018-09-17T04:35:20.664Z,10.09
2018-09-17T04:38:20.550Z,9.93
2018-09-17T04:41:20.590Z,9.94
2018-09-17T04:44:20.515Z,9.88
2018-09-17T04:47:20.500Z,10.06
2018-09-17T04:50:20.436Z,10.36
2018-09-17T04:53:20.411Z,10.55
2018-09-17T04:56:20.435Z,10.51
2018-09-17T04:59:20.373Z,10.51
2018-09-17T05:02:20.310Z,10.44
2018-09-17T05:05:20.334Z,10.30
2018-09-17T05:08:20.207Z,10.33
2018-09-17T05:11:20.219Z,10.40
2018-09-17T05:14:20.185Z,10.65
2018-09-17T05:17:20.144Z,10.76
2018-09-17T05:20:20.116Z,10.60
2018-09-17T05:23:20.098Z,10.95
2018-09-17T05:26:20.036Z,11.32
2018-09-17T05:29:20.002Z,12.15
2018-09-17T05:32:19.940Z,11.93
2018-09-17T05:35:19.936Z,11.80
2018-09-17T05:38:19.902Z,11.83
2018-09-17T05:41:19.871Z,12.02
2018-09-17T05:44:19.855Z,12.26
2018-09-17T05:47:19.827Z,12.34
2018-09-17T05:50:19.739Z,12.71
2018-09-17T05:53:21.717Z,13.12
2018-09-17T05:56:19.667Z,13.54
2018-09-17T05:59:19.663Z,14.34
2018-09-17T06:02:19.589Z,14.75
2018-09-17T06:05:21.210Z,15.45
2018-09-17T06:08:19.543Z,15.67
2018-09-17T06:11:19.599Z,16.18
2018-09-17T06:14:19.479Z,16.96
2018-09-17T06:17:19.464Z,17.57
2018-09-17T06:20:19.410Z,18.34
2018-09-17T06:23:19.454Z,18.55
2018-09-17T06:26:19.340Z,19.14
2018-09-17T06:29:21.227Z,19.20
2018-09-17T06:32:19.297Z,18.67
2018-09-17T06:35:21.177Z,18.09
2018-09-17T06:38:19.260Z,18.00
2018-09-17T06:41:19.222Z,17.99
2018-09-17T06:44:19.137Z,18.21
2018-09-17T06:47:20.113Z,17.62
2018-09-17T06:50:20.066Z,18.57
2018-09-17T06:53:19.043Z,17.95
2018-09-17T06:56:18.980Z,19.54
2018-09-17T06:59:18.967Z,20.05
2018-09-17T07:02:18.978Z,20.30
2018-09-17T07:05:18.961Z,21.19
2018-09-17T07:08:18.878Z,21.39
2018-09-17T07:11:20.682Z,21.59
2018-09-17T07:14:18.805Z,22.59
2018-09-17T07:17:18.755Z,23.64
2018-09-17T07:20:18.745Z,24.38
2018-09-17T07:23:18.763Z,24.61
2018-09-17T07:26:18.652Z,25.50
2018-09-17T07:29:18.651Z,26.08
2018-09-17T07:32:18.585Z,26.44
2018-09-17T07:35:18.603Z,26.81
2018-09-17T07:38:18.523Z,26.87
2018-09-17T07:41:18.713Z,26.54
2018-09-17T07:44:18.471Z,26.09
2018-09-17T07:47:18.440Z,26.52
2018-09-17T07:50:18.423Z,26.20
2018-09-17T07:53:18.397Z,27.35
2018-09-17T07:56:18.344Z,26.50
2018-09-17T07:59:18.314Z,26.72
2018-09-17T08:02:18.268Z,27.32
2018-09-17T08:05:18.253Z,28.07
2018-09-17T08:08:18.202Z,27.85
2018-09-17T08:11:18.172Z,28.69
2018-09-17T08:14:18.120Z,28.59
2018-09-17T08:17:19.677Z,28.29
2018-09-17T08:20:18.062Z,27.89
2018-09-17T08:23:19.733Z,28.29
2018-09-17T08:26:18.052Z,28.62
2018-09-17T08:29:18.085Z,29.11
2018-09-17T08:32:18.020Z,27.95
2018-09-17T08:35:17.991Z,27.77
2018-09-17T08:38:17.954Z,27.71
2018-09-17T08:41:17.974Z,27.91
2018-09-17T08:44:17.853Z,27.77
2018-09-17T08:47:17.847Z,27.86
2018-09-17T08:50:17.836Z,27.89
2018-09-17T08:53:17.752Z,27.11
2018-09-17T08:56:17.713Z,26.61
2018-09-17T08:59:17.663Z,27.32
2018-09-17T09:02:17.614Z,27.76
2018-09-17T09:05:17.591Z,28.28
2018-09-17T09:08:17.659Z,28.11
2018-09-17T09:11:17.532Z,28.60
2018-09-17T09:14:17.503Z,28.26
2018-09-17T09:17:19.204Z,28.80
2018-09-17T09:20:17.416Z,29.15
2018-09-17T09:23:17.413Z,29.06
2018-09-17T09:26:17.375Z,28.47
2018-09-17T09:29:17.364Z,29.31
2018-09-17T09:32:17.308Z,29.97
2018-09-17T09:35:17.288Z,30.02
2018-09-17T09:38:17.246Z,29.37
2018-09-17T09:41:19.187Z,30.24
2018-09-17T09:44:17.215Z,29.81
2018-09-17T09:47:17.150Z,29.90
2018-09-17T09:50:17.202Z,29.74
2018-09-17T09:53:17.160Z,28.60
2018-09-17T09:56:17.037Z,28.07
2018-09-17T09:59:20.078Z,28.23
2018-09-17T10:02:16.995Z,28.26
2018-09-17T10:05:16.968Z,28.10
2018-09-17T10:08:16.912Z,29.11
2018-09-17T10:11:16.911Z,29.53
2018-09-17T10:14:16.851Z,29.72
2018-09-17T10:17:16.861Z,30.84
2018-09-17T10:20:16.783Z,31.48
2018-09-17T10:23:16.784Z,31.82
2018-09-17T10:26:16.734Z,31.68
2018-09-17T10:29:16.719Z,30.99
2018-09-17T10:32:16.662Z,30.53
2018-09-17T10:35:16.663Z,30.78
2018-09-17T10:38:16.609Z,30.74
2018-09-17T10:41:16.614Z,31.18
2018-09-17T10:44:16.553Z,31.28
2018-09-17T10:47:16.541Z,30.74
2018-09-17T10:50:16.489Z,30.23
2018-09-17T10:53:16.492Z,30.94
2018-09-17T10:56:16.434Z,30.89
2018-09-17T10:59:16.415Z,31.12
2018-09-17T11:02:16.410Z,31.11
2018-09-17T11:05:16.375Z,31.26
2018-09-17T11:08:16.356Z,31.40
2018-09-17T11:11:16.293Z,31.01
2018-09-17T11:14:16.261Z,30.36
2018-09-17T11:17:16.405Z,30.56
2018-09-17T11:20:16.234Z,31.30
2018-09-17T11:23:16.187Z,31.08
2018-09-17T11:26:16.142Z,31.26
2018-09-17T11:29:16.131Z,32.05
2018-09-17T11:32:16.084Z,32.07
2018-09-17T11:35:16.059Z,31.91
2018-09-17T11:38:16.020Z,30.49
2018-09-17T11:41:16.059Z,31.27
2018-09-17T11:44:15.971Z,30.91
2018-09-17T11:47:15.938Z,30.80
2018-09-17T11:50:15.916Z,30.75
2018-09-17T11:53:15.888Z,30.90
2018-09-17T11:56:15.845Z,30.30
2018-09-17T11:59:15.812Z,29.94
2018-09-17T12:02:15.878Z,30.02
2018-09-17T12:05:15.767Z,29.78
2018-09-17T12:08:15.729Z,29.49
2018-09-17T12:11:15.684Z,29.10
2018-09-17T12:14:15.663Z,28.84
2018-09-17T12:17:15.650Z,28.95
2018-09-17T12:20:15.606Z,29.41
2018-09-17T12:23:15.566Z,29.71
2018-09-17T12:26:15.541Z,30.03
2018-09-17T12:29:15.517Z,29.65
2018-09-17T12:32:15.491Z,29.74
2018-09-17T12:35:15.453Z,29.47
2018-09-17T12:38:15.386Z,29.34
2018-09-17T12:41:15.373Z,30.03
2018-09-17T12:44:15.338Z,31.02
2018-09-17T12:47:15.312Z,31.26
2018-09-17T12:50:15.258Z,31.77
2018-09-17T12:53:15.262Z,30.64
2018-09-17T12:56:15.228Z,31.28
2018-09-17T12:59:15.171Z,31.43
2018-09-17T13:02:15.150Z,31.30
2018-09-17T13:05:15.139Z,31.65
2018-09-17T13:08:15.082Z,31.46
2018-09-17T13:11:15.070Z,31.28
2018-09-17T13:14:15.150Z,31.33
2018-09-17T13:17:15.032Z,31.39
2018-09-17T13:20:15.012Z,31.36
2018-09-17T13:23:14.977Z,31.53
2018-09-17T13:26:14.962Z,30.86
2018-09-17T13:29:14.982Z,30.67
2018-09-17T13:32:14.858Z,30.99
2018-09-17T13:35:14.820Z,31.75
2018-09-17T13:38:14.813Z,30.91
2018-09-17T13:41:14.793Z,31.31
2018-09-17T13:44:14.738Z,31.53
2018-09-17T13:47:14.728Z,31.68
2018-09-17T13:50:14.707Z,31.87
2018-09-17T13:53:14.814Z,31.45
2018-09-17T13:56:14.651Z,31.88
2018-09-17T13:59:14.632Z,31.31
2018-09-17T14:02:14.537Z,31.54
2018-09-17T14:05:14.496Z,32.27
2018-09-17T14:08:14.470Z,31.35
2018-09-17T14:11:14.427Z,31.79
2018-09-17T14:14:14.398Z,32.17
2018-09-17T14:17:14.398Z,32.42
2018-09-17T14:20:14.342Z,32.80
2018-09-17T14:23:14.318Z,31.98
2018-09-17T14:26:14.320Z,30.68
2018-09-17T14:29:14.288Z,30.14
2018-09-17T14:32:14.300Z,30.67
2018-09-17T14:35:14.340Z,30.59
2018-09-17T14:38:14.194Z,30.49
2018-09-17T14:41:14.155Z,30.45
2018-09-17T14:44:14.123Z,30.96
2018-09-17T14:47:14.057Z,31.38
2018-09-17T14:50:14.119Z,30.52
2018-09-17T14:53:14.000Z,30.43
2018-09-17T14:56:14.018Z,30.52
2018-09-17T14:59:13.917Z,31.04
2018-09-17T15:02:13.932Z,30.64
2018-09-17T15:05:13.891Z,30.23
2018-09-17T15:08:13.978Z,30.36
2018-09-17T15:11:13.829Z,30.67
2018-09-17T15:14:13.787Z,30.86
2018-09-17T15:17:13.768Z,30.80
2018-09-17T15:20:13.790Z,30.47
2018-09-17T15:23:15.320Z,30.05
2018-09-17T15:26:14.696Z,30.15
2018-09-17T15:29:13.604Z,30.43
2018-09-17T15:32:13.692Z,29.94
2018-09-17T15:35:13.561Z,30.14
2018-09-17T15:38:13.629Z,29.74
2018-09-17T15:41:13.628Z,29.19
2018-09-17T15:44:13.481Z,29.31
2018-09-17T15:47:13.430Z,29.31
2018-09-17T15:50:13.483Z,28.97
2018-09-17T15:53:13.348Z,28.72
2018-09-17T15:56:13.350Z,28.32
2018-09-17T15:59:13.280Z,28.48
2018-09-17T16:02:13.237Z,28.33
2018-09-17T16:05:13.205Z,29.03
2018-09-17T16:08:13.174Z,29.28
2018-09-17T16:11:13.135Z,29.20
2018-09-17T16:14:13.202Z,29.25
2018-09-17T16:17:13.145Z,28.88
2018-09-17T16:20:13.034Z,28.22
2018-09-17T16:23:12.992Z,28.06
2018-09-17T16:26:12.984Z,27.94
2018-09-17T16:29:12.931Z,27.86
2018-09-17T16:32:12.895Z,27.92
2018-09-17T16:35:12.881Z,27.89
2018-09-17T16:38:12.838Z,27.82
2018-09-17T16:41:12.803Z,26.94
2018-09-17T16:44:12.770Z,26.57
2018-09-17T16:47:12.815Z,26.04
2018-09-17T16:50:12.703Z,25.54
2018-09-17T16:53:12.722Z,25.22
2018-09-17T16:56:12.607Z,25.07
2018-09-17T16:59:12.623Z,24.53
2018-09-17T17:02:12.537Z,24.38
2018-09-17T17:05:12.535Z,24.52
2018-09-17T17:08:12.473Z,24.52
2018-09-17T17:11:12.512Z,24.23
2018-09-17T17:14:12.429Z,23.94
2018-09-17T17:17:12.391Z,23.80
2018-09-17T17:20:12.339Z,23.24
2018-09-17T17:23:12.334Z,22.65
2018-09-17T17:26:14.055Z,22.35
2018-09-17T17:29:12.249Z,22.07
2018-09-17T17:32:12.227Z,21.45
2018-09-17T17:35:12.205Z,21.38
2018-09-17T17:38:12.133Z,21.16
2018-09-17T17:41:12.145Z,20.68
2018-09-17T17:44:12.100Z,20.27
2018-09-17T17:47:12.467Z,20.12
2018-09-17T17:50:12.076Z,19.94
2018-09-17T17:53:12.022Z,19.50
2018-09-17T17:56:11.927Z,19.46
2018-09-17T17:59:11.940Z,19.46
2018-09-17T18:02:13.693Z,19.33
2018-09-17T18:05:11.892Z,19.18
2018-09-17T18:08:11.832Z,19.06
2018-09-17T18:11:11.796Z,18.84
2018-09-17T18:14:11.740Z,18.67
2018-09-17T18:17:11.710Z,18.44
2018-09-17T18:20:11.673Z,18.39
2018-09-17T18:23:11.675Z,18.42
2018-09-17T18:26:11.593Z,18.40
2018-09-17T18:29:11.728Z,18.19
2018-09-17T18:32:11.524Z,18.00
2018-09-17T18:35:11.508Z,18.03
2018-09-17T18:38:11.468Z,17.95
2018-09-17T18:41:11.523Z,17.76
2018-09-17T18:44:11.387Z,17.95
2018-09-17T18:47:11.384Z,17.97
2018-09-17T18:50:11.319Z,18.03
2018-09-17T18:53:11.308Z,17.81
2018-09-17T18:56:11.306Z,17.57
2018-09-17T18:59:11.238Z,17.36
2018-09-17T19:02:11.207Z,17.59
2018-09-17T19:05:11.464Z,17.67
2018-09-17T19:08:11.152Z,17.69
2018-09-17T19:11:11.108Z,17.57
2018-09-17T19:14:11.043Z,17.71
2018-09-17T19:17:11.040Z,17.73
2018-09-17T19:20:11.141Z,17.66
2018-09-17T19:23:10.969Z,17.67
2018-09-17T19:26:10.919Z,17.59
2018-09-17T19:29:12.816Z,17.62
2018-09-17T19:32:10.864Z,17.62
2018-09-17T19:35:10.870Z,17.66
2018-09-17T19:38:10.821Z,17.53
2018-09-17T19:41:10.786Z,17.41
2018-09-17T19:44:10.781Z,17.23
2018-09-17T19:47:10.739Z,16.81
2018-09-17T19:50:10.775Z,16.33
2018-09-17T19:53:10.667Z,16.34
2018-09-17T19:56:10.599Z,16.23
2018-09-17T19:59:10.592Z,16.22
2018-09-17T20:02:10.522Z,16.60
2018-09-17T20:05:10.488Z,16.90
2018-09-17T20:08:10.447Z,17.13
2018-09-17T20:11:10.727Z,17.26
2018-09-17T20:14:10.388Z,16.80
2018-09-17T20:17:10.393Z,16.35
2018-09-17T20:20:10.318Z,15.99
2018-09-17T20:23:10.367Z,15.97
2018-09-17T20:26:10.245Z,16.07
2018-09-17T20:29:10.227Z,16.23
2018-09-17T20:32:10.191Z,16.45
2018-09-17T20:35:10.195Z,16.35
2018-09-17T20:38:10.135Z,16.22
2018-09-17T20:41:10.097Z,16.03
2018-09-17T20:44:10.034Z,16.07
2018-09-17T20:47:10.038Z,16.09
2018-09-17T20:50:09.963Z,16.14
2018-09-17T20:53:09.994Z,16.45
2018-09-17T20:56:09.997Z,16.38
2018-09-17T20:59:09.877Z,16.67
2018-09-17T21:02:09.835Z,16.30
2018-09-17T21:05:09.816Z,16.18
2018-09-17T21:08:09.808Z,15.92
2018-09-17T21:11:09.748Z,15.74
2018-09-17T21:14:09.714Z,15.54
2018-09-17T21:17:09.678Z,15.42
2018-09-17T21:20:09.643Z,15.39
2018-09-17T21:23:09.606Z,15.46
2018-09-17T21:26:10.117Z,15.42
2018-09-17T21:29:10.236Z,15.46
2018-09-17T21:32:09.593Z,15.74
2018-09-17T21:35:10.071Z,15.76
2018-09-17T21:38:09.411Z,15.84
2018-09-17T21:41:09.856Z,15.96
2018-09-17T21:44:09.558Z,16.01
2018-09-17T21:47:09.387Z,16.01
2018-09-17T21:50:09.279Z,16.15
2018-09-17T21:53:11.210Z,16.23
2018-09-17T21:56:10.325Z,16.30
2018-09-17T21:59:09.199Z,16.42
2018-09-17T22:02:09.194Z,16.22
2018-09-17T22:05:09.177Z,15.97
2018-09-17T22:08:09.083Z,15.79
2018-09-17T22:11:09.097Z,15.81
2018-09-17T22:14:09.007Z,15.57
2018-09-17T22:17:08.998Z,15.42
2018-09-17T22:20:09.973Z,15.26
2018-09-17T22:23:08.916Z,15.33
2018-09-17T22:26:08.911Z,15.41
2018-09-17T22:29:08.972Z,15.46
2018-09-17T22:32:08.844Z,15.52
2018-09-17T22:35:08.845Z,15.68
2018-09-17T22:38:08.757Z,15.72
2018-09-17T22:41:08.728Z,15.61
2018-09-17T22:44:08.701Z,15.63
2018-09-17T22:47:08.677Z,15.67
2018-09-17T22:50:08.604Z,15.60
2018-09-17T22:53:09.585Z,15.78
2018-09-17T22:56:08.526Z,15.70
2018-09-17T22:59:08.528Z,15.85
2018-09-17T23:02:08.454Z,15.59
2018-09-17T23:05:08.444Z,15.48
2018-09-17T23:08:08.395Z,15.33
2018-09-17T23:11:08.384Z,15.20
2018-09-17T23:14:08.322Z,15.17
2018-09-17T23:17:08.317Z,15.54
2018-09-17T23:20:08.255Z,15.57
2018-09-17T23:23:08.253Z,15.63
2018-09-17T23:26:08.208Z,15.54
2018-09-17T23:29:08.188Z,15.43
2018-09-17T23:32:08.125Z,15.13
2018-09-17T23:35:08.094Z,15.13
2018-09-17T23:38:08.079Z,15.28
2018-09-17T23:41:08.096Z,15.35
2018-09-17T23:44:08.026Z,15.48
2018-09-17T23:47:07.970Z,15.49
2018-09-17T23:50:07.954Z,15.54
2018-09-17T23:53:09.716Z,15.59
2018-09-17T23:56:07.889Z,15.70
2018-09-17T23:59:07.880Z,15.59
